Date,TemperatureHighF,TemperatureAvgF,TemperatureLowF,DewpointHighF,DewpointAvgF,DewpointLowF,HumidityHigh,HumidityAvg,HumidityLow,PressureMaxIn,PressureMinIn,WindSpeedMaxMPH,WindSpeedAvgMPH,GustSpeedMaxMPH,PrecipitationSumIn
2013-7-1,98,83,73,-100,-100,-100,0,0,100,0.00,40.00,0,-999,0,0.00
2013-7-2,104,86,71,-100,-100,-100,0,0,100,0.00,40.00,0,-999,0,0.00
2013-7-3,96,84,71,-100,-100,-100,0,0,100,0.00,40.00,0,-999,0,0.00
2013-7-4,101,84,71,-100,-100,-100,0,0,100,0.00,40.00,0,-999,0,0.00
2013-7-5,100,85,74,-100,-100,-100,0,0,100,0.00,40.00,0,-999,0,0.00
2013-7-6,95,75,65,-100,-100,-100,0,0,100,0.00,40.00,0,-999,0,0.00
2013-7-7,98,78,62,-100,-100,-100,0,0,100,0.00,40.00,0,-999,0,0.00
2013-7-8,98,76,63,-100,-100,-100,0,0,100,0.00,40.00,0,-999,0,0.00
2013-7-9,98,79,61,-100,-100,-100,0,0,100,0.00,40.00,0,-999,0,0.00
2013-7-10,94,81,66,-100,-100,-100,0,0,100,0.00,40.00,0,-999,0,0.00
2013-7-11,95,80,72,-100,-100,-100,0,0,100,0.00,40.00,0,-999,0,0.00
2013-7-12,88,74,58,-100,-100,-100,0,0,100,0.00,40.00,0,-999,0,0.00
2013-7-13,94,79,60,-100,-100,-100,0,0,100,0.00,40.00,0,-999,0,0.00
2013-7-14,98,78,58,-100,-100,-100,0,0,100,0.00,40.00,0,-999,0,0.00
2013-7-15,93,74,62,-100,-100,-100,0,0,100,0.00,40.00,0,-999,0,0.00
2013-7-16,89,78,61,-100,-100,-100,0,0,100,0.00,40.00,0,-999,0,0.00
2013-7-17,88,73,56,-100,-100,-100,0,0,100,0.00,40.00,0,-999,0,0.00
2013-7-18,91,74,58,-100,-100,-100,0,0,100,0.00,40.00,0,-999,0,0.00
2013-7-19,94,75,64,-100,-100,-100,0,0,100,0.00,40.00,0,-999,0,0.00
2013-7-20,99,81,65,-100,-100,-100,0,0,100,0.00,40.00,0,-999,0,0.00
2013-7-21,98,83,69,-100,-100,-100,0,0,100,0.00,40.00,0,-999,0,0.00
2013-7-22,87,80,73,-100,-100,-100,0,0,100,0.00,40.00,0,-999,0,0.00
2013-7-23,92,79,69,-100,-100,-100,0,0,100,0.00,40.00,0,-999,0,0.00
2013-7-24,93,77,65,-100,-100,-100,0,0,100,0.00,40.00,0,-999,0,0.00
2013-7-25,96,83,66,-100,-100,-100,0,0,100,0.00,40.00,0,-999,0,0.00
2013-7-26,96,78,66,-100,-100,-100,0,0,100,0.00,40.00,0,-999,0,0.00
2013-7-27,95,84,73,-100,-100,-100,0,0,100,0.00,40.00,0,-999,0,0.00
2013-7-28,95,79,64,-100,-100,-100,0,0,100,0.00,40.00,0,-999,0,0.00
2013-7-29,93,79,65,-100,-100,-100,0,0,100,0.00,40.00,0,-999,0,0.00
2013-7-30,89,76,62,-100,-100,-100,0,0,100,0.00,40.00,0,-999,0,0.00
2013-7-31,90,74,62,-100,-100,-100,0,0,100,0.00,40.00,0,-999,0,0.00